Time;durP1;ratioP1;P1;durP2;ratioP2;P2;SDS_P1;SDS_P2;PMS_P1;PMS_P2;Temp;Humidity;BMP_temperature;BMP_pressure;BME280_temperature;BME280_humidity;BME280_pressure;Samples;Min_cycle;Max_cycle;Signal;HPM_P1;HPM_P2
2022/02/03 00:02:27;;;;;;;29.60;20.70;;;;;;;2.66;58.33;99779.77;117179;1186;22935;-52
2022/02/03 00:07:39;;;;;;;32.30;20.90;;;;;;;2.64;58.23;99780.96;117102;1183;23715;-65
2022/02/03 00:24:42;;;;;;;45.40;25.20;;;;;;;2.58;58.24;99790.25;117209;1185;24183;-66
2022/02/03 00:30:15;;;;;;;39.30;22.80;;;;;;;2.61;58.13;99793.23;117174;1181;22950;-53
2022/02/03 00:33:05;;;;;;;34.30;22.20;;;;;;;2.61;58.11;99800.51;117117;1186;21862;-53
2022/02/03 00:48:19;;;;;;;50.00;30.30;;;;;;;2.63;58.18;99805.73;117052;1186;21866;-66
2022/02/03 00:49:19;;;;;;;49.40;28.10;;;;;;;2.64;58.22;99811.98;117153;1176;24169;-53
2022/02/03 00:51:51;;;;;;;43.70;25.00;;;;;;;2.64;58.07;99810.42;117213;1186;22167;-66
2022/02/03 00:54:22;;;;;;;34.40;21.90;;;;;;;2.64;58.15;99810.23;117035;1183;21871;-63
2022/02/03 00:56:54;;;;;;;38.00;22.90;;;;;;;2.63;58.07;99808.15;117154;1182;23576;-53
2022/02/03 00:59:29;;;;;;;37.60;22.40;;;;;;;2.70;58.01;99800.94;117103;1183;22937;-64
2022/02/03 01:01:59;;;;;;;38.80;22.60;;;;;;;2.71;57.91;99798.02;117193;1182;22619;-53
2022/02/03 01:04:29;;;;;;;36.80;23.50;;;;;;;2.66;57.95;99798.65;117143;1183;22953;-53
2022/02/03 01:06:58;;;;;;;33.10;22.50;;;;;;;2.58;58.07;99803.41;117169;1182;23484;-65
2022/02/03 01:09:29;;;;;;;;;;;;;;;2.57;58.08;99805.31;117120;1186;21846;-58
2022/02/03 01:12:22;;;;;;;27.90;19.10;;;;;;;2.52;58.22;99806.64;117243;1183;22921;-53
2022/02/03 01:15:00;;;;;;;31.30;19.60;;;;;;;2.49;58.10;99807.11;117192;1186;23473;-54
2022/02/03 01:45:07;;;;;;;37.90;22.00;;;;;;;2.43;58.13;99810.52;117065;1180;22753;-55
2022/02/03 01:52:47;;;;;;;38.00;23.00;;;;;;;2.38;58.26;99810.82;117215;1178;21914;-54
2022/02/03 01:55:24;;;;;;;37.40;22.10;;;;;;;2.38;58.07;99813.58;117184;1186;21862;-54
2022/02/03 01:58:01;;;;;;;31.70;20.30;;;;;;;2.35;58.22;99817.00;117183;1186;22874;-53
2022/02/03 02:00:39;;;;;;;30.80;20.10;;;;;;;2.33;58.17;99824.09;117178;1178;23449;-55
2022/02/03 02:03:10;;;;;;;29.60;18.50;;;;;;;2.32;58.08;99827.19;117229;1178;21861;-64
2022/02/03 02:05:39;;;;;;;33.50;20.40;;;;;;;2.31;58.13;99830.12;117200;1185;23475;-54
2022/02/03 02:08:07;;;;;;;30.20;18.40;;;;;;;2.30;58.30;99835.80;117245;1185;23075;-65
2022/02/03 02:37:01;;;;;;;38.00;23.90;;;;;;;2.08;58.10;99854.40;117317;1185;21842;-54
2022/02/03 02:39:30;;;;;;;32.90;20.50;;;;;;;2.08;58.28;99851.11;117233;1186;21857;-65
2022/02/03 02:44:56;;;;;;;32.20;20.80;;;;;;;2.11;58.23;99856.00;117138;1188;21845;-54
2022/02/03 02:47:40;;;;;;;35.70;21.60;;;;;;;2.11;58.43;99858.41;117226;1185;23476;-66
2022/02/03 02:50:13;;;;;;;36.30;21.50;;;;;;;2.13;58.24;99862.08;117235;1181;23181;-65
2022/02/03 02:52:50;;;;;;;39.40;24.30;;;;;;;2.14;58.29;99865.21;117288;1185;23623;-65
2022/02/03 03:29:22;;;;;;;32.60;18.90;;;;;;;2.49;58.45;99857.17;117250;1181;22308;-65
2022/02/03 03:34:52;;;;;;;33.40;19.50;;;;;;;2.54;58.55;99864.52;117233;1182;23577;-54
2022/02/03 03:37:36;;;;;;;36.70;22.20;;;;;;;2.57;58.54;99867.15;117056;1187;21888;-55
2022/02/03 03:40:06;;;;;;;34.70;22.00;;;;;;;2.61;58.46;99870.84;117205;1182;21848;-55
2022/02/03 03:42:38;;;;;;;29.90;19.20;;;;;;;2.61;58.50;99865.48;117267;1185;21857;-54
2022/02/03 03:45:07;;;;;;;29.20;18.40;;;;;;;2.64;58.56;99865.33;117238;1185;21955;-53
2022/02/03 03:47:38;;;;;;;37.80;21.30;;;;;;;2.66;58.50;99872.80;117240;1185;21867;-64
2022/02/03 03:50:11;;;;;;;31.70;19.90;;;;;;;2.68;58.50;99875.07;117132;1186;21881;-54
2022/02/03 03:52:53;;;;;;;30.60;18.20;;;;;;;2.68;58.31;99871.27;117136;1182;23552;-58
2022/02/03 04:37:10;;;;;;;32.80;21.50;;;;;;;2.54;58.43;99929.98;117023;1184;23567;-64
2022/02/03 05:01:34;;;;;;;38.20;19.60;;;;;;;2.52;58.35;99954.04;117068;1186;21878;-66
2022/02/03 05:03:59;;;;;;;33.70;21.10;;;;;;;2.50;58.37;99956.10;116987;1187;23011;-53
2022/02/03 05:06:57;;;;;;;32.30;19.70;;;;;;;2.48;58.38;99960.21;117154;1186;23484;-65
2022/02/03 05:12:28;;;;;;;35.70;20.60;;;;;;;2.50;58.41;99965.61;117080;1183;24189;-53
2022/02/03 05:52:41;;;;;;;37.50;20.30;;;;;;;2.59;58.49;100031.23;117127;1184;22563;-54
2022/02/03 06:06:36;;;;;;;29.70;18.60;;;;;;;2.69;58.61;100048.33;116967;1188;21850;-54
2022/02/03 06:14:32;;;;;;;34.70;20.70;;;;;;;2.75;58.61;100062.10;117155;1186;21862;-66
2022/02/03 06:17:16;;;;;;;36.70;20.90;;;;;;;2.78;58.63;100064.58;117072;1186;21885;-65
2022/02/03 06:23:24;;;;;;;29.80;18.90;;;;;;;2.83;58.66;100071.59;117134;1181;23910;-57
2022/02/03 06:28:12;;;;;;;38.10;21.90;;;;;;;2.89;58.64;100077.55;117190;1186;23651;-54
2022/02/03 06:30:40;;;;;;;39.70;21.50;;;;;;;2.92;58.62;100085.05;117105;1185;22639;-63
2022/02/03 06:33:09;;;;;;;40.50;23.40;;;;;;;2.95;58.64;100090.46;117258;1182;21855;-55
2022/02/03 06:35:38;;;;;;;36.10;21.20;;;;;;;2.99;58.77;100090.52;117025;1185;22724;-65
2022/02/03 06:38:06;;;;;;;39.80;23.20;;;;;;;3.01;58.65;100089.34;117156;1186;23652;-64
2022/02/03 06:40:34;;;;;;;39.50;23.60;;;;;;;3.03;58.66;100093.52;117258;1178;23595;-65
2022/02/03 06:43:02;;;;;;;31.10;20.20;;;;;;;3.07;58.62;100098.27;119355;1186;22248;-65
2022/02/03 06:45:47;;;;;;;34.70;21.20;;;;;;;3.09;58.77;100102.98;119323;1178;21799;-55
2022/02/03 06:48:18;;;;;;;32.00;21.10;;;;;;;3.14;58.73;100109.27;119360;1181;21831;-55
2022/02/03 06:50:53;;;;;;;32.20;19.90;;;;;;;3.19;58.65;100112.98;119331;1182;22271;-66
2022/02/03 06:53:25;;;;;;;32.00;19.80;;;;;;;3.22;58.65;100113.55;119343;1180;21777;-55
2022/02/03 06:58:54;;;;;;;35.70;20.30;;;;;;;3.30;58.67;100112.61;117593;1186;21859;-63
2022/02/03 07:01:31;;;;;;;34.90;20.40;;;;;;;3.33;58.62;100114.90;117261;1183;21866;-63
2022/02/03 07:04:04;;;;;;;31.60;18.50;;;;;;;3.37;58.74;100116.87;117216;1186;22168;-64
2022/02/03 07:06:33;;;;;;;33.00;18.40;;;;;;;3.42;58.68;100115.37;117271;1181;21865;-54
2022/02/03 07:09:06;;;;;;;29.90;17.70;;;;;;;3.47;58.87;100113.52;117124;1182;24250;-65
2022/02/03 07:11:38;;;;;;;32.00;18.90;;;;;;;3.51;58.74;100112.89;117257;1176;23452;-64
2022/02/03 07:14:07;;;;;;;;;;;;;;;3.58;58.80;100119.89;117301;1181;21838;-54
2022/02/03 07:16:47;;;;;;;28.70;17.00;;;;;;;3.64;58.82;100119.96;117264;1179;22960;-65
2022/02/03 07:19:16;;;;;;;29.30;17.10;;;;;;;3.68;58.84;100119.15;117237;1182;24173;-63
2022/02/03 07:21:47;;;;;;;26.30;16.40;;;;;;;3.74;58.88;100125.13;117316;1181;23478;-54
2022/02/03 07:24:15;;;;;;;27.60;15.90;;;;;;;3.81;58.97;100131.44;117115;1186;23660;-54
2022/02/03 07:26:43;;;;;;;25.30;15.50;;;;;;;3.86;58.85;100134.63;117231;1185;23499;-63
2022/02/03 07:29:12;;;;;;;22.10;14.30;;;;;;;3.92;59.04;100141.98;117148;1185;22911;-50
2022/02/03 07:31:40;;;;;;;23.10;15.70;;;;;;;3.96;58.97;100141.67;117104;1183;23020;-54
2022/02/03 07:34:12;;;;;;;26.60;15.00;;;;;;;4.01;58.89;100147.98;117280;1184;21929;-54
2022/02/03 07:36:43;;;;;;;23.00;14.30;;;;;;;4.07;59.00;100150.47;117014;1179;23513;-62
2022/02/03 07:39:12;;;;;;;24.00;14.60;;;;;;;4.10;59.00;100151.73;117202;1179;22999;-55
2022/02/03 07:41:44;;;;;;;23.80;15.10;;;;;;;4.13;58.87;100147.59;117091;1183;24205;-63
2022/02/03 07:44:15;;;;;;;21.70;14.00;;;;;;;4.16;58.96;100142.41;116964;1186;22881;-62
2022/02/03 07:46:45;;;;;;;23.10;15.00;;;;;;;4.20;58.93;100138.98;118457;1179;21858;-53
2022/02/03 07:49:13;;;;;;;21.50;13.60;;;;;;;4.24;58.91;100145.77;117112;1182;23561;-66
2022/02/03 07:51:42;;;;;;;23.80;14.10;;;;;;;4.29;58.92;100151.91;117280;1183;22450;-54
2022/02/03 07:54:10;;;;;;;23.10;14.10;;;;;;;4.36;59.05;100156.33;117133;1184;24155;-55
2022/02/03 07:56:38;;;;;;;22.10;13.40;;;;;;;4.45;59.08;100159.88;117037;1183;22648;-55
2022/02/03 07:59:07;;;;;;;21.50;13.40;;;;;;;4.54;59.20;100161.35;117161;1179;23550;-63
2022/02/03 08:01:35;;;;;;;19.60;11.90;;;;;;;4.63;59.44;100164.38;117275;1185;22848;-61
2022/02/03 08:04:06;;;;;;;18.40;11.40;;;;;;;4.75;59.42;100162.40;117313;1186;22957;-63
2022/02/03 08:06:40;;;;;;;18.30;11.60;;;;;;;4.84;59.43;100164.90;117296;1185;22867;-56
2022/02/03 08:09:17;;;;;;;17.20;10.90;;;;;;;4.92;59.08;100163.39;117242;1185;23622;-55
2022/02/03 08:11:54;;;;;;;15.10;9.20;;;;;;;4.98;59.27;100162.05;117091;1182;23466;-56
2022/02/03 08:14:36;;;;;;;15.20;9.30;;;;;;;5.03;59.31;100167.30;117255;1181;22915;-63
2022/02/03 08:17:09;;;;;;;14.90;9.50;;;;;;;5.05;59.37;100169.58;117304;1186;21854;-63
2022/02/03 08:19:49;;;;;;;14.90;8.60;;;;;;;5.09;59.43;100172.21;117337;1182;22648;-62
2022/02/03 08:22:24;;;;;;;13.20;8.80;;;;;;;5.14;59.20;100177.46;117115;1186;21862;-63
2022/02/03 08:25:03;;;;;;;13.70;8.90;;;;;;;5.21;59.35;100184.30;117305;1182;22633;-63
2022/02/03 08:30:18;;;;;;;14.10;8.80;;;;;;;5.41;59.64;100181.27;117409;1185;23590;-63
2022/02/03 08:32:50;;;;;;;12.30;7.80;;;;;;;5.49;59.45;100188.29;117091;1183;23474;-55
2022/02/03 08:38:01;;;;;;;12.90;8.00;;;;;;;5.83;59.52;100185.30;117312;1184;24403;-63
2022/02/03 08:41:17;;;;;;;13.80;8.10;;;;;;;5.97;59.75;100185.89;117279;1178;21867;-56
2022/02/03 08:43:20;;;;;;;11.10;7.50;;;;;;;6.12;59.66;100190.85;117134;1186;21912;-55
2022/02/03 08:45:49;;;;;;;12.50;8.10;;;;;;;6.21;59.66;100195.05;117486;1185;21857;-63
2022/02/03 08:48:17;;;;;;;10.30;6.80;;;;;;;6.30;59.54;100193.33;117206;1183;23477;-56
2022/02/03 08:50:46;;;;;;;11.20;7.30;;;;;;;6.41;59.40;100194.22;117314;1182;23591;-62
2022/02/03 08:53:29;;;;;;;10.70;6.90;;;;;;;6.56;59.68;100191.11;117344;1185;23493;-56
2022/02/03 08:58:48;;;;;;;14.50;8.90;;;;;;;6.85;59.54;100193.04;117362;1185;24165;-56
2022/02/03 09:34:59;;;;;;;11.80;6.10;;;;;;;7.75;59.40;100192.18;117264;1182;21860;-54
2022/02/03 09:40:25;;;;;;;12.70;7.40;;;;;;;7.95;59.43;100197.51;117085;1178;22706;-65
2022/02/03 09:57:17;;;;;;;11.60;7.50;;;;;;;8.10;59.04;100189.05;117338;1182;23461;-65
2022/02/03 10:00:02;;;;;;;11.20;6.90;;;;;;;7.98;58.78;100193.13;117304;1178;23643;-65
2022/02/03 10:02:33;;;;;;;27.70;16.50;;;;;;;7.88;58.58;100195.45;117117;1185;21867;-61
2022/02/03 10:05:13;;;;;;;12.90;8.10;;;;;;;7.77;58.44;100197.40;117312;1183;21855;-51
2022/02/03 10:07:50;;;;;;;11.50;7.70;;;;;;;7.75;58.74;100194.61;117181;1185;22944;-57
2022/02/03 10:10:39;;;;;;;10.50;7.00;;;;;;;7.83;59.08;100198.43;117260;1184;23473;-51
2022/02/03 10:13:16;;;;;;;12.30;7.40;;;;;;;8.03;59.04;100192.06;117288;1183;23639;-51
2022/02/03 10:15:45;;;;;;;10.70;6.90;;;;;;;8.25;59.30;100197.88;117211;1184;24336;-66
2022/02/03 10:18:27;;;;;;;9.30;6.00;;;;;;;8.44;59.29;100195.68;117170;1186;21851;-50
2022/02/03 10:20:57;;;;;;;9.00;6.30;;;;;;;8.63;59.35;100202.75;117316;1185;22207;-65
2022/02/03 10:23:26;;;;;;;10.30;6.50;;;;;;;8.82;59.35;100199.29;117305;1182;24162;-65
2022/02/03 10:26:08;;;;;;;10.70;7.40;;;;;;;9.04;59.38;100194.55;117246;1186;22881;-63
2022/02/03 10:28:37;;;;;;;9.40;6.20;;;;;;;9.06;58.70;100199.95;117107;1178;21875;-52
2022/02/03 10:31:10;;;;;;;8.80;6.40;;;;;;;8.94;58.49;100209.69;117295;1185;23647;-67
2022/02/03 10:33:41;;;;;;;9.00;5.60;;;;;;;8.81;58.37;100209.44;117050;1182;21863;-53
2022/02/03 10:36:23;;;;;;;14.90;9.10;;;;;;;8.64;58.34;100213.24;117318;1182;23331;-55
2022/02/03 10:39:18;;;;;;;30.70;15.60;;;;;;;8.47;58.20;100214.38;117248;1185;22926;-62
2022/02/03 10:42:03;;;;;;;13.00;7.30;;;;;;;8.33;58.02;100211.48;117086;1187;23528;-62
2022/02/03 10:59:31;;;;;;;11.60;6.80;;;;;;;8.57;58.29;100218.02;117086;1185;24230;-61
2022/02/03 11:11:39;;;;;;;;;;;;;;;8.21;57.41;100214.17;117219;1186;23464;-62
2022/02/03 11:14:08;;;;;;;10.10;6.00;;;;;;;8.12;57.59;100221.73;117316;1182;22921;-62
2022/02/03 11:16:38;;;;;;;8.50;5.10;;;;;;;8.06;57.38;100225.25;117277;1183;21863;-63
2022/02/03 11:19:10;;;;;;;9.80;5.60;;;;;;;7.98;57.26;100223.88;117069;1178;22900;-62
2022/02/03 11:21:40;;;;;;;8.30;5.00;;;;;;;7.92;57.06;100225.48;117278;1186;21930;-55
2022/02/03 11:24:19;;;;;;;9.10;5.70;;;;;;;7.81;56.92;100219.06;117265;1181;22044;-55
2022/02/03 11:27:05;;;;;;;9.30;5.70;;;;;;;7.70;56.96;100220.50;117292;1185;21968;-62
2022/02/03 11:30:16;;;;;;;7.80;4.90;;;;;;;7.62;57.06;100219.29;116990;1187;21861;-63
2022/02/03 11:32:55;;;;;;;7.90;4.70;;;;;;;7.54;57.27;100217.04;117247;1186;21989;-63
2022/02/03 11:52:50;;;;;;;8.50;5.20;;;;;;;8.73;56.70;100200.92;117265;1178;21856;-54
2022/02/03 12:20:44;;;;;;;6.20;4.00;;;;;;;7.66;56.31;100243.73;117043;1185;24229;-63
2022/02/03 12:26:25;;;;;;;5.80;3.80;;;;;;;7.38;56.20;100246.39;116995;1182;21999;-62
2022/02/03 12:28:56;;;;;;;6.70;3.80;;;;;;;7.27;56.28;100252.17;117939;1178;21866;-63
2022/02/03 12:37:11;;;;;;;5.90;3.70;;;;;;;7.03;56.30;100268.05;117445;1182;23649;-54
2022/02/03 12:40:00;;;;;;;7.80;4.70;;;;;;;6.95;56.21;100270.48;117278;1185;22881;-54
2022/02/03 12:45:17;;;;;;;7.20;4.30;;;;;;;6.80;56.30;100281.98;117257;1181;22610;-55
2022/02/03 12:47:47;;;;;;;7.20;4.20;;;;;;;6.76;56.36;100285.65;117289;1182;21881;-55
2022/02/03 12:50:21;;;;;;;;;;;;;;;6.76;56.09;100292.27;117049;1186;21845;-63
2022/02/03 12:52:50;;;;;;;6.40;3.60;;;;;;;6.79;56.60;100286.88;117007;1182;21863;-63
2022/02/03 12:55:34;;;;;;;6.50;3.60;;;;;;;6.80;56.21;100295.60;116958;1188;21867;-63
2022/02/03 12:58:13;;;;;;;5.90;3.20;;;;;;;6.81;56.45;100305.36;117279;1185;23730;-64
2022/02/03 13:00:48;;;;;;;5.80;3.50;;;;;;;6.80;56.41;100306.59;117051;1187;21979;-63
2022/02/03 13:03:33;;;;;;;5.90;3.30;;;;;;;6.78;56.24;100306.75;116923;1187;23484;-62
2022/02/03 13:06:06;;;;;;;7.90;3.70;;;;;;;6.77;56.43;100310.42;117209;1178;23244;-62
2022/02/03 13:08:46;;;;;;;6.30;3.50;;;;;;;6.79;56.43;100310.94;117029;1185;21842;-55
2022/02/03 13:11:25;;;;;;;7.80;4.30;;;;;;;6.81;56.52;100313.04;117528;1185;24186;-52
2022/02/03 13:16:33;;;;;;;9.30;4.90;;;;;;;6.91;56.95;100322.81;117324;1181;23452;-50
2022/02/03 13:19:11;;;;;;;5.60;3.60;;;;;;;6.95;56.83;100322.46;117285;1184;23538;-65
2022/02/03 13:26:58;;;;;;;6.20;3.00;;;;;;;6.97;56.77;100332.42;117261;1184;23510;-50
2022/02/03 13:29:39;;;;;;;5.40;3.50;;;;;;;6.95;56.69;100331.55;117094;1183;22658;-62
2022/02/03 13:32:13;;;;;;;6.00;3.50;;;;;;;6.91;56.75;100332.40;117316;1185;22932;-63
2022/02/03 13:35:18;;;;;;;5.30;3.20;;;;;;;6.88;56.79;100332.58;117265;1182;22938;-54
2022/02/03 13:37:44;;;;;;;9.80;4.70;;;;;;;6.85;56.83;100346.35;117562;1181;21863;-61
2022/02/03 13:40:20;;;;;;;22.00;10.30;;;;;;;6.82;56.78;100344.97;117076;1182;24255;-51
2022/02/03 13:42:52;;;;;;;12.20;7.10;;;;;;;6.82;56.75;100346.88;117365;1182;23553;-50
2022/02/03 13:45:21;;;;;;;14.40;7.70;;;;;;;6.80;56.81;100345.65;117065;1184;22929;-66
2022/02/03 13:47:50;;;;;;;32.20;14.00;;;;;;;6.78;56.89;100350.35;117341;1185;22009;-64
2022/02/03 13:50:25;;;;;;;35.90;15.30;;;;;;;6.74;56.66;100354.00;117278;1186;22946;-49
2022/02/03 13:53:01;;;;;;;28.40;12.50;;;;;;;6.71;56.56;100356.95;117250;1181;21863;-55
2022/02/03 14:21:02;;;;;;;14.90;9.70;;;;;;;5.90;56.35;100405.83;117073;1186;21990;-62
2022/02/03 14:29:21;;;;;;;16.90;10.70;;;;;;;5.80;56.52;100415.15;117249;1185;23692;-50
2022/02/03 14:32:05;;;;;;;10.10;6.70;;;;;;;5.82;56.59;100420.20;117029;1182;22949;-49
2022/02/03 14:34:37;;;;;;;13.20;8.20;;;;;;;5.82;56.62;100424.05;117033;1186;24166;-52
2022/02/03 14:37:23;;;;;;;18.70;15.50;;;;;;;5.83;56.74;100427.02;117255;1183;23554;-62
2022/02/03 14:42:22;;;;;;;16.20;14.50;;;;;;;5.82;56.78;100433.45;117276;1182;23581;-53
2022/02/03 14:44:52;;;;;;;11.80;7.40;;;;;;;5.80;56.36;100434.13;117151;1184;21843;-62
2022/02/03 14:47:26;;;;;;;;;;;;;;;5.79;56.41;100437.08;117260;1186;21889;-62
2022/02/03 14:49:55;;;;;;;10.40;6.60;;;;;;;5.76;56.71;100440.02;117264;1185;22325;-63
2022/02/03 14:52:30;;;;;;;11.10;6.70;;;;;;;5.73;56.46;100438.78;117318;1184;24270;-63
2022/02/03 15:00:30;;;;;;;11.10;7.40;;;;;;;5.63;56.69;100449.83;117291;1185;22918;-62
2022/02/03 15:02:59;;;;;;;12.90;8.70;;;;;;;5.59;56.53;100453.96;117296;1185;21852;-53
2022/02/03 15:05:30;;;;;;;14.10;10.40;;;;;;;5.54;56.36;100454.27;117322;1185;21884;-52
2022/02/03 15:08:03;;;;;;;13.10;9.40;;;;;;;5.51;56.33;100456.86;117293;1185;21965;-62
2022/02/03 15:15:31;;;;;;;13.60;8.30;;;;;;;5.39;56.34;100463.70;117322;1181;23475;-52
2022/02/03 15:18:00;;;;;;;12.40;7.60;;;;;;;5.34;56.30;100470.08;117227;1186;23453;-52
2022/02/03 15:20:30;;;;;;;15.80;10.40;;;;;;;5.30;56.16;100474.22;117309;1185;21855;-52
2022/02/03 15:23:00;;;;;;;12.10;7.30;;;;;;;5.27;56.24;100478.89;117281;1186;22946;-56
2022/02/03 15:25:29;;;;;;;;;;;;;;;5.24;56.30;100484.08;117207;1183;24143;-53
2022/02/03 15:27:58;;;;;;;12.30;8.10;;;;;;;5.24;56.18;100483.20;117094;1186;23454;-62
2022/02/03 15:30:29;;;;;;;12.40;8.40;;;;;;;5.23;56.51;100488.92;117270;1185;22996;-62
2022/02/03 15:32:58;;;;;;;12.80;8.50;;;;;;;5.20;56.29;100492.54;117396;1186;23567;-52
2022/02/03 15:35:33;;;;;;;13.80;8.40;;;;;;;5.16;56.49;100495.80;117141;1184;21858;-62
2022/02/03 15:38:04;;;;;;;13.30;8.50;;;;;;;5.14;56.62;100497.34;117246;1185;22926;-62
2022/02/03 15:40:35;;;;;;;14.50;9.00;;;;;;;5.11;56.29;100496.44;117210;1184;23555;-62
2022/02/03 15:45:53;;;;;;;15.40;9.10;;;;;;;5.06;56.19;100505.80;117286;1185;23617;-63
2022/02/03 16:01:41;;;;;;;20.30;11.90;;;;;;;4.86;56.79;100509.01;117264;1183;23584;-62
2022/02/03 16:16:28;;;;;;;22.30;14.50;;;;;;;4.68;56.78;100511.89;117231;1185;23740;-52
2022/02/03 16:18:08;;;;;;;25.40;15.70;;;;;;;4.65;56.70;100516.71;117137;1182;23452;-51
2022/02/03 16:51:06;;;;;;;17.90;10.50;;;;;;;4.45;56.65;100543.18;117059;1186;23525;-62
2022/02/03 16:53:36;;;;;;;22.20;12.10;;;;;;;4.41;56.47;100547.48;117210;1185;23468;-52
2022/02/03 16:56:08;;;;;;;23.00;13.60;;;;;;;4.38;56.42;100554.37;117272;1186;23476;-52
2022/02/03 16:58:38;;;;;;;31.10;18.60;;;;;;;4.34;56.55;100558.14;117376;1178;24237;-52
2022/02/03 17:01:06;;;;;;;62.50;31.30;;;;;;;4.32;56.68;100558.63;117321;1186;23554;-58
2022/02/03 17:03:35;;;;;;;29.40;18.60;;;;;;;4.29;56.54;100563.27;117283;1186;21884;-51
2022/02/03 17:06:05;;;;;;;23.20;13.70;;;;;;;4.30;56.79;100567.80;117285;1185;21856;-61
2022/02/03 17:08:34;;;;;;;25.90;18.00;;;;;;;4.29;56.68;100565.35;117025;1184;24203;-62
2022/02/03 17:11:08;;;;;;;23.90;14.10;;;;;;;4.29;56.60;100576.83;117093;1184;23590;-62
2022/02/03 17:13:37;;;;;;;27.70;17.30;;;;;;;4.28;56.83;100572.97;117083;1187;22040;-62
2022/02/03 17:16:05;;;;;;;27.70;16.70;;;;;;;4.25;56.72;100572.41;117272;1185;22011;-61
2022/02/03 17:18:33;;;;;;;24.40;15.20;;;;;;;4.22;56.78;100574.95;117306;1181;22113;-62
2022/02/03 17:21:02;;;;;;;27.90;17.00;;;;;;;4.20;57.01;100579.43;117006;1187;21860;-51
2022/02/03 17:23:30;;;;;;;25.30;16.40;;;;;;;4.20;56.89;100580.98;117146;1183;22828;-50
2022/02/03 17:26:42;;;;;;;20.60;14.00;;;;;;;4.18;56.84;100579.59;117281;1179;21865;-52
2022/02/03 18:10:12;;;;;;;18.50;9.70;;;;;;;3.97;56.95;100593.13;117303;1185;24156;-62
2022/02/03 18:18:46;;;;;;;20.90;11.30;;;;;;;3.95;56.85;100603.16;117267;1184;23475;-61
2022/02/03 18:27:38;;;;;;;18.40;11.10;;;;;;;4.01;56.56;100601.86;117276;1184;23600;-51
2022/02/03 18:56:41;;;;;;;43.70;19.00;;;;;;;3.88;56.52;100609.10;117279;1185;21913;-62
2022/02/03 20:05:40;;;;;;;9.10;4.80;;;;;;;2.97;56.23;100646.06;117258;1185;24170;-52
2022/02/03 20:08:16;;;;;;;8.70;4.90;;;;;;;2.89;56.05;100647.61;117103;1185;24233;-51
2022/02/03 20:10:48;;;;;;;9.50;5.00;;;;;;;2.82;56.36;100649.72;117281;1184;21855;-52
2022/02/03 20:13:16;;;;;;;7.40;4.40;;;;;;;2.78;55.96;100652.05;117334;1185;21864;-60
2022/02/03 20:15:46;;;;;;;10.10;6.40;;;;;;;2.73;55.48;100658.51;117064;1185;22644;-51
2022/02/03 20:18:17;;;;;;;18.50;9.30;;;;;;;2.64;55.25;100659.52;117278;1185;21960;-63
2022/02/03 20:20:46;;;;;;;16.90;7.90;;;;;;;2.54;54.92;100661.52;117223;1185;22938;-62
2022/02/03 20:23:15;;;;;;;10.10;5.70;;;;;;;2.48;55.23;100665.87;117134;1186;23483;-61
2022/02/03 20:25:54;;;;;;;9.60;5.50;;;;;;;2.43;54.93;100663.14;117134;1186;21856;-51
2022/02/03 20:28:26;;;;;;;8.30;4.40;;;;;;;2.36;55.03;100663.31;117250;1185;22913;-62
2022/02/03 20:30:54;;;;;;;9.30;4.70;;;;;;;2.25;55.18;100667.86;116995;1186;23571;-62
2022/02/03 20:33:22;;;;;;;9.10;4.90;;;;;;;2.20;55.09;100666.02;117253;1185;21860;-51
2022/02/03 20:35:51;;;;;;;8.00;4.40;;;;;;;2.16;54.93;100661.23;117224;1182;23461;-62
2022/02/03 20:38:19;;;;;;;7.40;3.90;;;;;;;2.04;55.21;100667.14;117240;1185;23547;-51
2022/02/03 20:40:48;;;;;;;7.60;4.20;;;;;;;1.95;55.34;100675.05;117223;1186;21851;-63
2022/02/03 20:43:16;;;;;;;7.80;3.80;;;;;;;1.93;55.44;100677.41;117200;1183;24175;-62
2022/02/03 20:45:44;;;;;;;7.10;4.00;;;;;;;1.90;55.36;100677.86;117027;1187;21882;-51
2022/02/03 20:48:13;;;;;;;7.60;4.30;;;;;;;1.87;55.54;100678.12;117390;1185;21858;-51
2022/02/03 20:50:46;;;;;;;7.10;4.10;;;;;;;1.90;55.52;100673.17;117301;1182;21909;-52
2022/02/03 20:53:14;;;;;;;7.70;4.20;;;;;;;1.93;55.31;100672.57;117302;1185;21848;-61
2022/02/03 20:55:45;;;;;;;8.00;4.20;;;;;;;1.91;55.35;100675.64;117115;1188;21891;-61
2022/02/03 20:58:16;;;;;;;6.70;4.20;;;;;;;1.90;55.35;100672.67;117223;1186;23638;-62
2022/02/03 21:00:56;;;;;;;6.60;4.30;;;;;;;1.89;55.38;100672.98;117297;1186;22938;-52
2022/02/03 21:03:34;;;;;;;7.40;4.20;;;;;;;1.89;55.30;100674.89;117304;1176;22719;-63
2022/02/03 21:06:03;;;;;;;7.10;4.00;;;;;;;1.88;55.47;100682.30;117129;1185;21857;-62
2022/02/03 21:08:34;;;;;;;8.20;4.80;;;;;;;1.81;55.49;100682.44;117284;1183;23471;-52
2022/02/03 21:11:03;;;;;;;7.20;3.90;;;;;;;1.86;55.46;100686.92;117298;1185;21853;-52
2022/02/03 21:13:32;;;;;;;10.10;5.10;;;;;;;1.89;55.64;100685.64;117199;1183;23474;-62
2022/02/03 21:16:02;;;;;;;13.20;5.80;;;;;;;1.91;55.52;100684.98;117307;1181;23452;-52
2022/02/03 21:18:35;;;;;;;16.70;7.90;;;;;;;1.90;55.43;100684.45;117099;1178;21860;-62
2022/02/03 21:21:04;;;;;;;9.90;5.20;;;;;;;1.91;55.61;100682.73;117296;1183;22931;-62
2022/02/03 21:23:32;;;;;;;7.90;4.70;;;;;;;1.91;55.28;100686.88;117194;1185;21847;-52
2022/02/03 21:26:02;;;;;;;8.10;4.90;;;;;;;1.92;55.53;100691.08;117318;1185;22463;-63
2022/02/03 21:28:35;;;;;;;8.90;5.40;;;;;;;1.98;55.40;100691.02;117201;1180;22936;-63
2022/02/03 21:31:04;;;;;;;9.30;6.00;;;;;;;1.97;55.46;100689.64;117292;1183;21870;-62
2022/02/03 21:33:44;;;;;;;9.50;5.40;;;;;;;1.98;55.15;100690.02;117360;1184;21847;-52
2022/02/03 21:36:13;;;;;;;7.80;5.00;;;;;;;1.98;55.22;100687.77;117292;1182;23564;-52
2022/02/03 21:38:43;;;;;;;7.70;4.50;;;;;;;1.98;55.30;100689.84;117308;1182;23450;-63
2022/02/03 21:41:12;;;;;;;8.20;4.70;;;;;;;1.97;55.24;100692.92;117315;1182;24227;-52
2022/02/03 21:43:41;;;;;;;9.30;5.30;;;;;;;1.94;55.37;100690.61;117278;1178;21865;-62
2022/02/03 21:46:10;;;;;;;9.50;4.90;;;;;;;1.91;55.35;100690.71;117101;1182;21851;-53
2022/02/03 21:48:42;;;;;;;10.10;5.60;;;;;;;1.88;55.33;100694.23;117247;1186;21959;-62
2022/02/03 21:51:11;;;;;;;9.60;5.00;;;;;;;1.82;55.18;100695.96;117227;1186;21845;-52
2022/02/03 21:53:39;;;;;;;10.70;5.60;;;;;;;1.75;55.09;100698.55;117310;1185;21845;-52
2022/02/03 21:56:07;;;;;;;7.70;4.90;;;;;;;1.69;55.02;100703.89;117358;1184;22928;-62
2022/02/03 21:58:36;;;;;;;9.10;5.00;;;;;;;1.61;55.07;100709.73;117345;1182;24173;-62
2022/02/03 22:01:08;;;;;;;7.60;4.70;;;;;;;1.54;55.23;100714.55;117259;1182;23469;-51
2022/02/03 22:03:37;;;;;;;6.60;4.30;;;;;;;1.49;55.22;100715.95;117329;1186;22321;-63
2022/02/03 22:06:05;;;;;;;8.80;4.50;;;;;;;1.44;55.21;100714.75;117063;1187;23467;-62
2022/02/03 22:08:38;;;;;;;7.10;4.20;;;;;;;1.39;55.17;100717.55;117185;1186;23528;-51
2022/02/03 22:11:07;;;;;;;9.70;4.90;;;;;;;1.36;55.07;100715.36;117246;1183;23450;-51
2022/02/03 22:13:37;;;;;;;8.30;4.70;;;;;;;1.34;55.24;100708.75;117265;1181;23450;-52
2022/02/03 22:16:18;;;;;;;7.60;4.00;;;;;;;1.33;55.29;100705.96;117049;1179;23474;-62
2022/02/03 22:18:47;;;;;;;8.80;4.90;;;;;;;1.30;55.35;100703.11;117233;1182;21862;-51
2022/02/03 22:27:43;;;;;;;9.30;4.40;;;;;;;1.13;54.93;100704.30;117191;1185;22015;-53
2022/02/03 22:46:07;;;;;;;8.20;4.10;;;;;;;0.62;55.47;100719.24;117163;1187;23541;-62
2022/02/03 22:48:36;;;;;;;7.10;4.30;;;;;;;0.58;55.10;100726.92;117185;1183;23618;-62
2022/02/03 22:51:05;;;;;;;7.10;4.30;;;;;;;0.54;54.93;100733.66;117245;1186;21870;-51
2022/02/03 22:53:35;;;;;;;6.60;3.80;;;;;;;0.46;55.02;100729.95;117239;1182;23557;-62
2022/02/03 22:56:06;;;;;;;6.90;4.20;;;;;;;0.40;55.26;100733.34;117183;1185;22645;-51
2022/02/03 23:01:22;;;;;;;7.50;3.70;;;;;;;0.25;54.87;100748.35;117225;1186;23457;-51
2022/02/03 23:03:51;;;;;;;;;;;;;;;0.18;54.71;100744.69;117225;1186;21892;-52
2022/02/03 23:06:19;;;;;;;6.90;3.90;;;;;;;0.14;55.00;100750.59;117012;1188;21858;-51